• Join FlightAware (Why Join?)
  • Login
  • US Flag 
12:28AM EDT


 

Airport Tracker/Info


-or-


 

Live Flight TrackerFlight Track Log ✈ SWA35 ✈ 15-May-2013 ✈ KEWR - KDEN

Flight Track Log - Related Links

Times and Time Zones

All times are in EDT time to prevent confusion due to time zone crossing. See the SWA35 flight status page for this flight to view local times or setup timezone preferences in your user account.

Time Position Orientation Groundspeed Altitude Reporting Facility
EDT Latitude Longitude Course Direction KTS MPH feet Rate Location/Type
07:37AM 40.6458 -74.1736 270° West 170 196 1,500  Level New York Center
07:38AM 40.6272 -74.2436 251° West 259 298 5,300 3,840 Climbing New York Center
07:39AM 40.6225 -74.3336 266° West 268 308 9,200 3,660 Climbing New York Center
07:40AM 40.6117 -74.4150 260° West 263 303 12,700 2,340 Climbing New York Center
07:41AM 40.6483 -74.5100 297° West 255 293 14,000 600 Climbing New York Center
07:42AM 40.7036 -74.6006 309° West 317 365 14,000 540 Level New York Center
07:43AM 40.8667 -74.9824 270° West  Level FlightAware Approximate
07:43AM 40.7536 -74.7294 297° West 358 412 15,100  Level New York Center
07:44AM 40.7936 -74.8361 296° West 367 422 17,600 2,580 Climbing New York Center
07:45AM 40.8378 -74.9483 298° West 356 410 20,400 2,880 Climbing New York Center
07:46AM 40.8603 -75.0758 283° West 350 403 23,400 2,760 Climbing New York Center
07:47AM 40.8383 -75.2144 258° West 363 418 25,800 2,160 Climbing New York Center
07:48AM 40.8161 -75.3611 259° West 382 440 27,800 1,800 Climbing New York Center
07:49AM 40.7897 -75.5044 256° West 393 452 29,500 1,620 Climbing New York Center
07:50AM 40.7650 -75.6481 257° West 404 465 31,100 1,860 Climbing New York Center
07:51AM 40.7400 -75.7969 258° West 410 472 33,300 2,040 Climbing New York Center
07:52AM 40.7153 -75.9375 257° West 410 472 35,300 1,560 Climbing New York Center
07:53AM 40.6925 -76.0781 258° West 405 466 36,500 1,200 Climbing New York Center
07:54AM 40.6672 -76.2158 256° West 405 466 37,700 720 Climbing New York Center
07:55AM 40.6797 -76.3536 277° West 382 440 38,000 120 Climbing New York Center
07:56AM 40.6964 -76.4836 280° West 382 440 38,000  Level New York Center
07:57AM 40.7108 -76.6161 278° West 376 433 38,000  Level New York Center
07:58AM 40.7250 -76.7489 278° West 371 427 38,000  Level New York Center
07:59AM 40.7367 -76.8842 277° West 371 427 38,000  Level New York Center
08:00AM 40.7486 -77.0167 277° West 371 427 38,000  Level New York Center
08:01AM 40.7644 -77.1497 279° West 371 427 38,000  Level New York Center
08:02AM 40.7761 -77.2797 277° West 371 427 38,000  Level New York Center
08:03AM 40.7878 -77.4097 277° West 371 427 38,000  Level New York Center
08:05AM 40.8092 -77.6478 277° West 389 448 38,000  Level Cleveland Center
08:06AM 40.8208 -77.7817 277° West 383 441 38,000  Level Cleveland Center
08:07AM 40.8325 -77.9183 276° West 383 441 38,000  Level Cleveland Center
08:08AM 40.8439 -78.0497 277° West 378 435 38,000  Level Cleveland Center
08:09AM 40.8550 -78.1839 276° West 378 435 38,000  Level Cleveland Center
08:10AM 40.8703 -78.3233 278° West 378 435 38,000  Level Cleveland Center
08:11AM 40.8811 -78.4547 276° West 378 435 38,000  Level Cleveland Center
08:12AM 40.8919 -78.5889 276° West 378 435 38,000  Level Cleveland Center
08:13AM 40.9025 -78.7261 276° West 372 428 38,000  Level Cleveland Center
08:14AM 40.9131 -78.8603 276° West 367 422 38,000  Level Cleveland Center
08:15AM 40.9233 -78.9975 276° West 367 422 38,000  Level Cleveland Center
08:16AM 40.9336 -79.1347 276° West 367 422 38,000  Level Cleveland Center
08:17AM 40.9456 -79.2747 276° West 373 429 38,000  Level Cleveland Center
08:18AM 40.9533 -79.4036 275° West 385 443 38,000  Level Cleveland Center
08:19AM 40.9650 -79.5436 276° West 385 443 38,000  Level Cleveland Center
08:20AM 40.9747 -79.6811 275° West 385 443 38,000  Level Cleveland Center
08:21AM 40.9839 -79.8211 275° West 385 443 38,000  Level Cleveland Center
08:22AM 40.9953 -79.9614 276° West 385 443 38,000  Level Cleveland Center
08:23AM 41.0042 -80.1017 275° West 385 443 38,000  Level Cleveland Center
08:24AM 41.0131 -80.2392 275° West 385 443 38,000  Level Cleveland Center
08:25AM 41.0239 -80.3822 276° West 385 443 38,000  Level Cleveland Center
08:26AM 41.0322 -80.5225 275° West 385 443 38,000  Level Cleveland Center
08:27AM 41.0406 -80.6631 275° West 385 443 38,000  Level Cleveland Center
08:28AM 41.0508 -80.8033 276° West 385 443 38,000  Level Cleveland Center
08:29AM 41.0589 -80.9439 274° West 385 443 38,000  Level Cleveland Center
08:30AM 41.0667 -81.0869 274° West 390 449 38,000  Level Cleveland Center
08:31AM 41.0742 -81.2303 274° West 390 449 38,000  Level Cleveland Center
08:32AM 41.0839 -81.3736 275° West 385 443 38,000  Level Cleveland Center
08:33AM 41.0931 -81.5172 275° West 385 443 38,000  Level Cleveland Center
08:34AM 41.0981 -81.6578 273° West 385 443 38,000  Level Cleveland Center
08:35AM 41.1072 -81.7983 275° West 385 443 38,000  Level Cleveland Center
08:36AM 41.1139 -81.9392 274° West 385 443 38,000  Level Cleveland Center
08:37AM 41.1225 -82.0797 275° West 385 443 38,000  Level Cleveland Center
08:38AM 41.1244 -82.2369 271° West 390 449 38,000  Level Cleveland Center
08:39AM 41.1306 -82.3833 273° West 390 449 38,000  Level Cleveland Center
08:40AM 41.1367 -82.5242 273° West 390 449 38,000  Level Cleveland Center
08:41AM 41.1447 -82.6678 274° West 385 443 38,000  Level Cleveland Center
08:42AM 41.1503 -82.8139 273° West 391 450 38,000  Level Cleveland Center
08:43AM 41.1578 -82.9578 274° West 391 450 38,000  Level Cleveland Center
08:44AM 41.1631 -83.0986 273° West 391 450 38,000  Level Cleveland Center
08:45AM 41.1681 -83.2450 273° West 391 450 38,000  Level Cleveland Center
08:46AM 41.1731 -83.3886 273° West 391 450 38,000  Level Cleveland Center
08:47AM 41.1797 -83.5325 274° West 391 450 38,000  Level Cleveland Center
08:48AM 41.1842 -83.6789 272° West 391 450 38,000  Level Cleveland Center
08:49AM 41.1908 -83.8200 274° West 391 450 38,000  Level Cleveland Center
08:51AM 41.2019 -84.0731 273° West 391 450 38,000  Level Chicago Center
08:52AM 41.2067 -84.2178 273° West 394 453 38,000  Level Chicago Center
08:53AM 41.2122 -84.3617 273° West 391 450 38,000  Level Chicago Center
08:54AM 41.2161 -84.5086 272° West 395 455 38,000  Level Chicago Center
08:55AM 41.2203 -84.6550 272° West 398 458 38,000  Level Chicago Center
08:56AM 41.2242 -84.8033 272° West 400 460 38,000  Level Chicago Center
08:57AM 41.2278 -84.9803 272° West 399 459 38,000  Level Chicago Center
08:58AM 41.2317 -85.1292 272° West 401 461 38,000  Level Chicago Center
08:59AM 41.2344 -85.2781 271° West 402 463 38,000  Level Chicago Center
09:00AM 41.2381 -85.4286 272° West 404 465 38,000  Level Chicago Center
09:01AM 41.2411 -85.5808 272° West 408 470 38,000  Level Chicago Center
09:02AM 41.2439 -85.7303 271° West 404 465 38,000  Level Chicago Center
09:03AM 41.2467 -85.8761 271° West 403 464 38,000  Level Chicago Center
09:04AM 41.2492 -86.0306 271° West 406 467 38,000  Level Chicago Center
09:05AM 41.2519 -86.2103 271° West 404 465 38,000  Level Chicago Center
09:06AM 41.2547 -86.3606 271° West 407 468 38,000  Level Chicago Center
09:07AM 41.2561 -86.5100 271° West 405 466 38,000  Level Chicago Center
09:08AM 41.2575 -86.6592 271° West 403 464 38,000  Level Chicago Center
09:09AM 41.2589 -86.8236 271° West 408 470 38,000  Level Chicago Center
09:10AM 41.2606 -86.9744 271° West 409 471 38,000 120 Level Chicago Center
09:11AM 41.2611 -87.1242 270° West 409 471 38,300 840 Climbing Chicago Center
09:12AM 41.2625 -87.2739 271° West 407 468 39,800 780 Climbing Chicago Center
09:13AM 41.2625 -87.4214 270° West 403 464 40,000 60 Climbing Chicago Center
09:14AM 41.2639 -87.6033 271° West 411 473 40,000  Level Chicago Center
09:15AM 41.2650 -87.7544 271° West 412 474 40,000  Level Chicago Center
09:16AM 41.2639 -87.9058 269° West 411 473 40,000  Level Chicago Center
09:17AM 41.2633 -88.0597 270° West 412 474 40,000  Level Chicago Center
09:19AM 41.2636 -88.2139 270° West 412 474 40,000  Level Chicago Center
09:20AM 41.2633 -88.3656 270° West 410 472 40,000  Level Chicago Center
09:21AM 41.2625 -88.5144 270° West 406 467 40,000  Level Chicago Center
09:22AM 41.2611 -88.6942 269° West 407 468 40,000  Level Chicago Center
09:23AM 41.2603 -88.8458 270° West 411 473 40,000  Level Chicago Center
09:24AM 41.2592 -88.9981 269° West 413 475 40,000  Level Chicago Center
09:25AM 41.2581 -89.1497 269° West 414 476 40,000  Level Chicago Center
09:26AM 41.2561 -89.3181 269° West 415 478 40,000  Level Chicago Center
09:27AM 41.2539 -89.4722 269° West 418 481 40,000  Level Chicago Center
09:28AM 41.2522 -89.6247 269° West 417 480 40,000  Level Chicago Center
09:29AM 41.2503 -89.7775 269° West 416 479 40,000  Level Chicago Center
09:30AM 41.2481 -89.9314 269° West 420 483 40,000  Level Chicago Center
09:31AM 41.2442 -90.1172 268° West 422 486 40,000  Level Chicago Center
09:32AM 41.2419 -90.2703 269° West 418 481 40,000  Level Chicago Center
09:33AM 41.2381 -90.4275 268° West 426 490 40,000  Level Chicago Center
09:34AM 41.2333 -90.5842 268° West 426 490 40,000  Level Chicago Center
09:35AM 41.2300 -90.7383 268° West 423 487 40,000  Level Chicago Center
09:36AM 41.2261 -90.9244 268° West 423 487 40,000  Level Chicago Center
09:37AM 41.2217 -91.0803 268° West 422 486 40,000  Level Chicago Center
09:38AM 41.2164 -91.2369 267° West 424 488 40,000  Level Chicago Center
09:39AM 41.2114 -91.3947 268° West 429 494 40,000  Level Chicago Center
09:40AM 41.2069 -91.5519 268° West 428 493 40,000  Level Chicago Center
09:41AM 41.2017 -91.7128 268° West 427 491 40,000  Level Chicago Center
09:42AM 41.1944 -91.8978 267° West 425 489 40,000  Level Chicago Center
09:43AM 41.1897 -92.0519 268° West 423 487 40,000  Level Chicago Center
09:44AM 41.1833 -92.2044 267° West 421 484 40,000  Level Chicago Center
09:45AM 41.1783 -92.3600 268° West 423 487 40,000  Level Chicago Center
09:46AM 41.1717 -92.5131 267° West 420 483 40,000  Level Chicago Center
09:47AM 41.1658 -92.6681 267° West 424 488 40,000  Level Minneapolis Center
09:48AM 41.1581 -92.8531 267° West 423 487 40,000  Level Minneapolis Center
09:49AM 41.1511 -93.0072 267° West 424 488 40,000  Level Minneapolis Center
09:50AM 41.1442 -93.1614 267° West 424 488 40,000  Level Minneapolis Center
09:52AM 41.1386 -93.3125 267° West 419 482 40,000  Level Minneapolis Center
09:53AM 41.1314 -93.4683 267° West 425 489 40,000  Level Minneapolis Center
09:54AM 41.1217 -93.6278 265° West 431 496 40,000  Level Minneapolis Center
09:55AM 41.1108 -93.8167 266° West 434 499 40,000  Level Minneapolis Center
09:56AM 41.1017 -93.9717 266° West 432 497 40,000  Level Minneapolis Center
09:57AM 41.0969 -94.1222 268° West 423 487 40,000  Level Minneapolis Center
09:58AM 41.0889 -94.2781 266° West 426 490 40,000  Level Minneapolis Center
09:59AM 41.0811 -94.4331 266° West 427 491 40,000 -60 Level Minneapolis Center
10:00AM 41.0700 -94.5975 265° West 428 493 39,900  Descending Minneapolis Center
10:01AM 41.0614 -94.7542 266° West 427 491 40,000  Climbing Minneapolis Center
10:02AM 41.0486 -94.9425 265° West 428 493 40,000  Level Minneapolis Center
10:03AM 41.0389 -95.1014 265° West 430 495 40,000  Level Minneapolis Center
10:04AM 41.0289 -95.2611 265° West 433 498 40,000  Level Minneapolis Center
10:05AM 41.0178 -95.4219 265° West 435 501 40,000  Level Minneapolis Center
10:06AM 41.0061 -95.5822 265° West 436 502 40,000  Level Minneapolis Center
10:07AM 40.9950 -95.7408 265° West 433 498 40,000  Level Minneapolis Center
10:08AM 40.9839 -95.9033 265° West 436 502 40,000  Level Minneapolis Center
10:09AM 40.9733 -96.0650 265° West 437 503 40,000  Level Minneapolis Center
10:10AM 40.9594 -96.2589 265° West 438 504 40,000  Level Minneapolis Center
10:11AM 40.9475 -96.4189 264° West 436 502 40,000  Level Minneapolis Center
10:12AM 40.9328 -96.6108 264° West 435 501 40,000  Level Minneapolis Center
10:13AM 40.9197 -96.7714 264° West 436 502 40,000  Level Minneapolis Center
10:14AM 40.8897 -96.9250 256° West 434 499 40,000  Level Minneapolis Center
10:15AM 40.8611 -97.0806 256° West 435 501 40,000  Level Minneapolis Center
10:16AM 40.8333 -97.2364 257° West 435 501 40,000  Level Minneapolis Center
10:17AM 40.8036 -97.3956 256° West 438 504 40,000  Level Minneapolis Center
10:18AM 40.7733 -97.5511 256° West 438 504 40,000  Level Minneapolis Center
10:19AM 40.7442 -97.7083 256° West 439 505 40,000  Level Minneapolis Center
10:21AM 40.7139 -97.8653 256° West 440 506 40,000  Level Minneapolis Center
10:22AM 40.6725 -98.0847 256° West 440 506 40,000  Level Minneapolis Center
10:23AM 40.6406 -98.2411 255° West 440 506 40,000  Level Minneapolis Center
10:24AM 40.6114 -98.3992 256° West 441 507 40,000  Level Minneapolis Center
10:25AM 40.6164 -98.5586 272° West 438 504 40,000  Level Minneapolis Center
10:26AM 40.6269 -98.6875 276° West 438 504 40,000  Level Minneapolis Center
10:27AM 40.6447 -98.8783 277° West 436 502 40,000  Level Minneapolis Center
10:28AM 40.6581 -99.0375 276° West 435 501 40,000  Level Minneapolis Center
10:29AM 40.6717 -99.1975 276° West 435 501 40,000  Level Denver Center
10:29AM 40.6717 -99.1975 276° West 436 502 40,000  Level Minneapolis Center
10:30AM 40.6853 -99.3567 276° West 436 502 40,000  Level Denver Center
10:31AM 40.7006 -99.5486 276° West 438 504 40,000  Level Denver Center
10:32AM 40.7139 -99.7089 276° West 439 505 40,000  Level Denver Center
10:33AM 40.7258 -99.8558 276° West 440 506 40,000  Level Denver Center
10:34AM 40.7392 -100.0344 276° West 441 507 40,000  Level Denver Center
10:35AM 40.7517 -100.1894 276° West 443 510 40,000  Level Denver Center
10:36AM 40.7653 -100.3692 276° West 442 509 40,000  Level Denver Center
10:37AM 40.7758 -100.5242 275° West 442 509 40,000  Level Denver Center
10:38AM 40.7525 -100.7072 261° West 445 512 40,000  Level Denver Center
10:39AM 40.7272 -100.8614 258° West 442 509 40,000  Level Denver Center
10:40AM 40.7031 -101.0111 258° West 435 501 40,000  Level Denver Center
10:41AM 40.6747 -101.1847 258° West 433 498 40,000  Level Denver Center
10:42AM 40.6503 -101.3331 258° West 432 497 40,000  Level Denver Center
10:43AM 40.6208 -101.5064 257° West 434 499 40,000  Level Denver Center
10:44AM 40.5967 -101.6542 258° West 433 498 40,000  Level Denver Center
10:45AM 40.5678 -101.8275 258° West 434 499 40,000  Level Denver Center
10:46AM 40.5408 -101.9769 257° West 438 504 40,000  Level Denver Center
10:48AM 40.5153 -102.1250 257° West 436 502 40,000  Level Denver Center
10:49AM 40.4847 -102.2983 257° West 435 501 40,000  Level Denver Center
10:50AM 40.4586 -102.4461 257° West 435 501 40,000 -600 Level Denver Center
10:51AM 40.4281 -102.6167 257° West 430 495 38,800 -1,800 Descending Denver Center
10:52AM 40.4022 -102.7578 257° West 417 480 36,300 -3,000 Descending Denver Center
10:53AM 40.3719 -102.9267 257° West 425 489 32,700 -3,000 Descending Denver Center
10:54AM 40.3453 -103.0742 257° West 432 497 30,100 -2,580 Descending Denver Center
10:55AM 40.3153 -103.2375 257° West 424 488 27,400 -2,460 Descending Denver Center
10:56AM 40.2897 -103.3775 257° West 416 479 25,100 -2,400 Descending Denver Center
10:57AM 40.2594 -103.5344 256° West 402 463 22,500 -2,340 Descending Denver Center
10:58AM 40.2347 -103.6681 256° West 398 458 20,300 -2,040 Descending Denver Center
10:59AM 40.2058 -103.8208 256° West 378 435 18,300 -1,680 Descending Denver Center
11:00AM 40.2097 -103.9433 272° West 344 396 16,900 -1,500 Descending Denver Center
11:01AM 40.2200 -104.0611 277° West 329 379 15,200 -1,260 Descending Denver Center
11:02AM 40.2303 -104.1767 277° West 304 350 14,300 -960 Descending Denver Center
11:03AM 40.2389 -104.2714 277° West 269 310 13,300 -1,080 Descending Denver Center
11:04AM 40.2486 -104.3711 277° West 260 299 12,100 -1,140 Descending Denver Center
11:05AM 40.2283 -104.4589 253° West 255 293 11,000 -1,140 Descending Denver Center
11:06AM 40.1917 -104.5417 240° Southwest 256 295 9,800 -1,080 Descending Denver Center
11:07AM 40.1311 -104.5822 207° Southwest 247 284 8,800 -1,140 Descending Denver Center
11:08AM 40.0833 -104.6167 209° Southwest 246 283 7,800 -1,200 Descending Denver TRACON
11:08AM 40.0664 -104.6264 204° Southwest 245 282 7,600 -600 Descending Denver Center
11:09AM 40.0092 -104.6656 208° Southwest 236 272 7,100 -600 Descending Denver Center
11:10AM 39.9583 -104.6869 198° South 176 203 6,400 -660 Descending Denver Center
11:11AM 39.9158 -104.6869 180° South 155 178 5,800 -540 Descending Denver Center
11:12AM 39.8783 -104.6872 180° South 151 174 5,300 -540 Descending Denver Center
11:14AM 39.8617 -104.6732 North  Level Estimated
11:21AM 39.8617 -104.6732 North  Level Estimated
11:22AM 39.8617 -104.6732 North  Level Estimated